Time;durP1;ratioP1;P1;durP2;ratioP2;P2;SDS_P1;SDS_P2;PMS_P1;PMS_P2;Temp;Humidity;BMP_temperature;BMP_pressure;BME280_temperature;BME280_humidity;BME280_pressure;Samples;Min_cycle;Max_cycle;Signal;HPM_P1;HPM_P2
2022/04/12 00:00:47;;;;;;;4.57;4.13;;;;;;;7.47;69.76;99947.09;5111271;28;20578;-53
2022/04/12 00:03:13;;;;;;;4.33;3.80;;;;;;;7.49;70.52;99947.94;5112039;28;20194;-53
2022/04/12 00:05:40;;;;;;;4.70;4.33;;;;;;;7.42;69.37;99952.31;5111931;28;20285;-52
2022/04/12 00:08:09;;;;;;;4.40;4.10;;;;;;;7.42;69.26;99944.56;5111751;28;20225;-52
2022/04/12 00:10:37;;;;;;;4.60;4.20;;;;;;;7.44;69.69;99945.41;5111848;28;20205;-53
2022/04/12 00:13:04;;;;;;;4.97;4.20;;;;;;;7.48;68.40;99952.25;5111667;28;20746;-50
2022/04/12 00:15:31;;;;;;;4.93;4.40;;;;;;;7.48;68.46;99946.22;5111673;28;20197;-52
2022/04/12 00:20:43;;;;;;;5.30;4.13;;;;;;;7.44;68.21;99936.81;5111861;28;20197;-49
2022/04/12 00:23:12;;;;;;;5.20;4.17;;;;;;;7.31;68.08;99938.66;5111628;28;20194;-52
2022/04/12 00:25:39;;;;;;;5.83;3.90;;;;;;;7.33;68.43;99942.06;5111193;28;20194;-51
2022/04/12 00:28:06;;;;;;;4.30;3.90;;;;;;;7.28;68.52;99934.34;5111720;28;20565;-53
2022/04/12 00:30:33;;;;;;;4.20;3.90;;;;;;;7.24;69.00;99932.66;5111507;28;20198;-52
2022/04/12 00:33:00;;;;;;;4.57;3.77;;;;;;;7.23;69.35;99933.53;5111384;28;20194;-52
2022/04/12 00:35:27;;;;;;;4.97;4.47;;;;;;;7.18;70.11;99932.72;5111370;28;20195;-48
2022/04/12 00:37:55;;;;;;;4.80;4.10;;;;;;;7.12;70.21;99930.19;5111195;28;20233;-52
2022/04/12 00:40:25;;;;;;;4.30;3.90;;;;;;;7.11;70.13;99925.06;5111187;28;20199;-52
2022/04/12 00:42:53;;;;;;;4.20;3.70;;;;;;;7.15;70.49;99930.16;5111510;28;20199;-53
2022/04/12 00:45:20;;;;;;;4.10;3.70;;;;;;;7.06;69.67;99931.97;5111061;28;20195;-53
2022/04/12 00:47:47;;;;;;;4.20;3.80;;;;;;;7.04;69.98;99931.97;5110946;28;20234;-53
2022/04/12 00:50:15;;;;;;;3.80;3.50;;;;;;;7.00;70.40;99932.84;5111437;28;20677;-53
2022/04/12 00:52:45;;;;;;;3.50;3.30;;;;;;;7.00;69.86;99932.84;5111053;28;20206;-52
2022/04/12 00:55:12;;;;;;;4.03;3.73;;;;;;;6.98;71.00;99928.59;5110938;28;20198;-53
2022/04/12 00:57:42;;;;;;;4.20;3.90;;;;;;;6.98;69.79;99932.03;5110901;28;20191;-52
2022/04/12 01:00:11;;;;;;;4.60;3.73;;;;;;;6.90;70.80;99929.50;5111023;28;20581;-53
2022/04/12 01:02:39;;;;;;;4.33;3.93;;;;;;;6.86;71.23;99929.53;5110957;28;20203;-53
2022/04/12 01:05:07;;;;;;;6.23;3.80;;;;;;;6.86;71.01;99929.53;5110812;28;20626;-53
2022/04/12 01:07:35;;;;;;;4.30;3.93;;;;;;;6.84;71.02;99926.13;5110731;28;20252;-50
2022/04/12 01:10:03;;;;;;;4.03;3.67;;;;;;;6.76;71.59;99915.00;5110632;28;20198;-53
2022/04/12 01:12:38;;;;;;;4.07;3.57;;;;;;;6.84;71.21;99929.56;5110734;28;20578;-53
2022/04/12 01:15:14;;;;;;;4.57;3.77;;;;;;;6.79;71.05;99918.41;5110684;28;20197;-52
2022/04/12 01:17:42;;;;;;;5.23;3.67;;;;;;;6.71;71.81;99921.91;5110438;28;20681;-54
2022/04/12 01:20:11;;;;;;;3.90;3.60;;;;;;;6.60;71.58;99910.78;5110620;28;20213;-51
2022/04/12 01:22:44;;;;;;;4.23;3.87;;;;;;;6.72;71.70;99921.03;5110941;28;20563;-53
2022/04/12 01:25:12;;;;;;;4.47;3.93;;;;;;;6.72;71.62;99921.03;5110686;28;20190;-54
2022/04/12 01:27:39;;;;;;;4.30;3.90;;;;;;;6.71;72.13;99925.34;5119210;27;20389;-51
2022/04/12 01:30:07;;;;;;;3.97;3.67;;;;;;;6.70;71.78;99926.19;5124887;27;20588;-52
2022/04/12 01:32:34;;;;;;;4.50;4.10;;;;;;;6.69;72.03;99927.06;5131212;27;20194;-53
2022/04/12 01:35:01;;;;;;;5.10;4.23;;;;;;;6.59;72.37;99921.97;5130901;28;20204;-53
2022/04/12 01:37:28;;;;;;;4.47;4.13;;;;;;;6.55;71.94;99926.28;5113736;28;20297;-53
2022/04/12 01:39:55;;;;;;;4.33;3.97;;;;;;;6.54;72.43;99922.03;5110158;28;20190;-53
2022/04/12 01:42:24;;;;;;;5.53;4.00;;;;;;;6.51;72.19;99927.19;5110498;28;20705;-52
2022/04/12 01:44:51;;;;;;;4.73;4.17;;;;;;;6.51;72.19;99922.88;5110280;28;20198;-52
2022/04/12 01:47:18;;;;;;;4.93;4.53;;;;;;;6.48;72.51;99922.91;5110394;28;20200;-53
2022/04/12 01:49:45;;;;;;;4.50;4.13;;;;;;;6.42;72.61;99928.09;5110288;28;20226;-53
2022/04/12 01:52:12;;;;;;;4.30;3.83;;;;;;;6.47;72.64;99928.06;5110291;28;20212;-52
2022/04/12 01:54:39;;;;;;;5.67;4.07;;;;;;;6.42;72.89;99932.41;5110264;28;20194;-53
2022/04/12 01:57:06;;;;;;;4.70;3.70;;;;;;;6.49;72.10;99934.06;5110348;28;20186;-51
2022/04/12 01:59:34;;;;;;;5.47;3.90;;;;;;;6.49;72.30;99934.94;5110183;28;20598;-52
2022/04/12 02:02:01;;;;;;;4.00;3.70;;;;;;;6.44;72.81;99931.50;5110379;28;20277;-52
2022/04/12 02:04:28;;;;;;;5.80;4.57;;;;;;;6.42;72.88;99938.41;5110340;28;20190;-52
2022/04/12 02:06:55;;;;;;;5.37;4.00;;;;;;;6.45;73.14;99938.38;5110154;28;20212;-52
2022/04/12 02:09:22;;;;;;;4.87;4.40;;;;;;;6.45;73.08;99935.81;5110406;28;20549;-52
2022/04/12 02:11:49;;;;;;;6.87;4.40;;;;;;;6.40;73.26;99931.56;5110146;28;20195;-52
2022/04/12 02:14:16;;;;;;;4.73;4.27;;;;;;;6.45;72.96;99932.38;5110162;28;20198;-50
2022/04/12 02:16:44;;;;;;;7.60;4.73;;;;;;;6.47;73.34;99928.06;5110196;28;20201;-53
2022/04/12 02:19:11;;;;;;;5.90;4.30;;;;;;;6.43;72.86;99929.78;5110059;28;20195;-50
2022/04/12 02:21:38;;;;;;;4.30;4.00;;;;;;;6.42;73.25;99930.69;5110197;28;20198;-50
2022/04/12 02:24:06;;;;;;;5.70;4.70;;;;;;;6.32;73.72;99925.59;5112259;28;20704;-50
2022/04/12 02:26:32;;;;;;;7.50;4.57;;;;;;;6.39;74.01;99930.69;5113660;28;20234;-50
2022/04/12 02:28:59;;;;;;;5.20;4.70;;;;;;;6.44;73.70;99931.50;5113744;28;20228;-49
2022/04/12 02:31:26;;;;;;;7.50;4.80;;;;;;;6.46;72.95;99934.06;5114099;28;20206;-51
2022/04/12 02:33:55;;;;;;;4.60;4.30;;;;;;;6.47;72.99;99933.22;5113821;28;20194;-50
2022/04/12 02:36:21;;;;;;;6.30;4.67;;;;;;;6.28;73.42;99911.00;5113949;28;20197;-48
2022/04/12 02:38:48;;;;;;;5.83;4.47;;;;;;;6.36;73.61;99928.13;5113666;28;20666;-51
2022/04/12 02:41:15;;;;;;;6.97;5.47;;;;;;;6.46;73.12;99934.94;5113542;28;20205;-53
2022/04/12 02:43:42;;;;;;;6.20;4.67;;;;;;;6.42;73.76;99934.97;5113791;28;20202;-52
2022/04/12 02:46:09;;;;;;;6.93;5.63;;;;;;;6.28;73.39;99939.34;5113550;28;20196;-52
2022/04/12 02:48:36;;;;;;;7.03;5.50;;;;;;;6.25;73.76;99940.22;5113639;28;20724;-52
2022/04/12 02:51:04;;;;;;;6.60;6.00;;;;;;;6.25;73.56;99945.38;5113495;28;20627;-53
2022/04/12 02:53:31;;;;;;;9.43;5.80;;;;;;;6.14;74.39;99942.84;5113398;28;20289;-53
2022/04/12 02:55:58;;;;;;;9.63;5.80;;;;;;;6.04;74.57;99945.44;5113575;28;20281;-50
2022/04/12 02:58:25;;;;;;;9.37;6.73;;;;;;;6.08;74.81;99944.59;5113745;28;20191;-49
2022/04/12 03:00:52;;;;;;;6.37;5.60;;;;;;;6.10;75.00;99945.41;5113354;28;20285;-50
2022/04/12 03:03:19;;;;;;;12.87;7.00;;;;;;;6.08;74.59;99948.03;5113308;28;20244;-50
2022/04/12 03:05:46;;;;;;;7.10;6.40;;;;;;;6.02;74.56;99936.88;5112943;28;20199;-50
2022/04/12 03:08:14;;;;;;;13.53;7.53;;;;;;;6.13;74.10;99943.69;5112804;28;20197;-50
2022/04/12 03:10:41;;;;;;;7.73;6.33;;;;;;;6.19;73.99;99937.66;5113155;28;20194;-53
2022/04/12 03:13:08;;;;;;;8.07;6.40;;;;;;;6.14;74.70;99948.00;5113075;28;20700;-50
2022/04/12 03:15:35;;;;;;;11.47;6.23;;;;;;;6.09;74.84;99946.31;5106791;28;20219;-48
2022/04/12 03:18:01;;;;;;;8.67;6.40;;;;;;;6.08;74.21;99949.75;5108532;28;20223;-50
2022/04/12 03:20:28;;;;;;;6.47;5.80;;;;;;;6.03;74.20;99954.91;5112368;28;20228;-51
2022/04/12 03:22:55;;;;;;;7.87;5.70;;;;;;;6.06;73.65;99943.72;5112255;28;20236;-53
2022/04/12 03:25:23;;;;;;;6.87;5.77;;;;;;;6.04;73.71;99943.72;5112257;28;20226;-51
2022/04/12 03:27:50;;;;;;;8.23;5.53;;;;;;;6.10;73.83;99948.00;5112230;28;20225;-53
2022/04/12 03:30:17;;;;;;;7.77;5.60;;;;;;;6.00;73.98;99941.16;5111470;28;20698;-53
2022/04/12 03:32:44;;;;;;;5.90;5.30;;;;;;;6.06;73.98;99947.16;5112094;28;20352;-51
2022/04/12 03:35:11;;;;;;;10.83;5.87;;;;;;;6.05;73.81;99950.59;5112962;27;20218;-52
2022/04/12 03:37:39;;;;;;;7.87;5.23;;;;;;;6.03;74.37;99944.59;5117964;27;20697;-52
2022/04/12 03:40:07;;;;;;;6.10;5.53;;;;;;;6.10;73.93;99950.56;5115768;27;20210;-53
2022/04/12 03:42:35;;;;;;;8.57;5.90;;;;;;;6.16;73.79;99953.13;5121223;27;20612;-50
2022/04/12 03:45:02;;;;;;;9.07;5.30;;;;;;;6.15;73.23;99946.25;5128472;27;20222;-51
2022/04/12 03:47:29;;;;;;;8.37;6.13;;;;;;;6.15;73.64;99954.00;5121264;27;20232;-49
2022/04/12 03:49:56;;;;;;;11.20;5.20;;;;;;;6.13;73.00;99954.00;5121307;27;20229;-51
2022/04/12 03:52:23;;;;;;;8.77;5.23;;;;;;;6.21;73.47;99958.28;5124099;27;20240;-53
2022/04/12 03:54:50;;;;;;;7.40;4.63;;;;;;;6.21;73.50;99964.28;5119215;27;20220;-52
2022/04/12 03:57:17;;;;;;;7.33;4.83;;;;;;;6.30;73.03;99960.81;5115613;27;20206;-52
2022/04/12 03:59:46;;;;;;;5.20;4.80;;;;;;;6.35;72.07;99956.47;5116568;27;20205;-52
2022/04/12 04:02:12;;;;;;;5.07;4.57;;;;;;;6.40;71.60;99965.94;5116832;27;20197;-52
2022/04/12 04:04:39;;;;;;;5.93;4.80;;;;;;;6.40;72.55;99963.34;5126254;27;20190;-51
2022/04/12 04:07:06;;;;;;;9.60;4.90;;;;;;;6.49;71.47;99955.56;5117812;27;20205;-52
2022/04/12 04:09:33;;;;;;;9.63;4.97;;;;;;;6.51;72.39;99963.28;5121633;27;20214;-52
2022/04/12 04:12:03;;;;;;;11.67;5.47;;;;;;;6.52;72.50;99968.44;5121751;27;20220;-52
2022/04/12 04:14:33;;;;;;;7.27;4.83;;;;;;;6.56;71.92;99962.38;5121551;27;20193;-50
2022/04/12 04:17:01;;;;;;;10.40;6.00;;;;;;;6.67;71.92;99956.31;5119097;27;20222;-50
2022/04/12 04:19:28;;;;;;;6.80;5.70;;;;;;;6.63;71.25;99967.53;5120491;27;20193;-52
2022/04/12 04:21:56;;;;;;;8.70;5.50;;;;;;;6.79;71.77;99971.72;5121649;27;20204;-53
2022/04/12 04:24:23;;;;;;;9.60;5.67;;;;;;;6.91;70.50;99972.50;5119755;27;20191;-51
2022/04/12 04:26:55;;;;;;;12.10;5.60;;;;;;;7.14;69.51;99971.47;5127676;27;20707;-53
2022/04/12 04:29:23;;;;;;;6.00;5.40;;;;;;;7.75;68.58;99964.03;5113702;27;20225;-53
2022/04/12 04:31:50;;;;;;;5.80;5.13;;;;;;;9.29;64.08;99973.22;5128080;27;20221;-53
2022/04/12 04:34:19;;;;;;;8.93;5.17;;;;;;;11.08;58.56;99983.53;5111474;27;20717;-54
2022/04/12 04:36:46;;;;;;;6.93;5.27;;;;;;;12.49;53.35;99973.78;5113292;27;20602;-54
2022/04/12 04:39:12;;;;;;;5.30;4.67;;;;;;;14.18;48.92;99984.75;5116443;27;20701;-53
2022/04/12 04:41:39;;;;;;;6.80;4.70;;;;;;;15.35;46.58;99979.41;5115868;27;20218;-50
2022/04/12 04:44:07;;;;;;;5.10;4.70;;;;;;;16.85;41.89;99983.25;5109099;28;20229;-51
2022/04/12 04:46:34;;;;;;;5.47;4.97;;;;;;;18.17;39.54;99982.88;5109987;28;20729;-52
2022/04/12 04:49:01;;;;;;;6.13;4.60;;;;;;;19.28;36.16;99989.91;5110552;28;20226;-52
2022/04/12 04:51:30;;;;;;;5.30;4.80;;;;;;;20.34;33.85;99988.00;5110835;28;20305;-50
2022/04/12 04:53:59;;;;;;;5.32;4.82;;;;;;;20.99;31.32;99979.47;5110480;28;20215;-54
2022/04/12 04:56:27;;;;;;;7.38;4.47;;;;;;;21.78;29.73;99988.41;5110797;28;20660;-54
2022/04/12 04:58:54;;;;;;;5.43;3.95;;;;;;;22.79;28.28;99983.13;5110356;28;20720;-54
2022/04/12 05:01:22;;;;;;;5.60;4.50;;;;;;;23.51;27.26;99982.22;5110119;28;20306;-55
2022/04/12 05:03:50;;;;;;;4.70;4.30;;;;;;;23.86;26.39;99991.94;5110269;28;20234;-53
2022/04/12 05:06:17;;;;;;;6.15;5.55;;;;;;;24.35;26.01;99991.72;5110756;28;20697;-54
2022/04/12 05:08:46;;;;;;;5.68;5.10;;;;;;;23.89;25.40;99994.38;5110028;28;20222;-53
2022/04/12 05:11:13;;;;;;;6.20;5.60;;;;;;;24.33;25.77;99990.97;5110254;28;20218;-52
2022/04/12 05:13:40;;;;;;;9.00;4.88;;;;;;;24.79;24.95;99997.97;5110405;28;20630;-54
2022/04/12 05:16:06;;;;;;;6.05;4.57;;;;;;;24.83;24.89;99996.75;5109841;28;20310;-50
2022/04/12 05:18:33;;;;;;;6.95;5.22;;;;;;;25.67;23.87;99996.06;5110060;28;20224;-52
2022/04/12 05:21:00;;;;;;;7.07;4.78;;;;;;;25.26;23.97;99999.47;5110305;28;20214;-52
2022/04/12 05:23:27;;;;;;;5.07;4.60;;;;;;;25.27;24.01;99999.34;5110161;28;20703;-53
2022/04/12 05:25:56;;;;;;;6.53;4.90;;;;;;;24.98;24.27;100000.00;5110240;28;20242;-53
2022/04/12 05:28:23;;;;;;;5.40;4.82;;;;;;;24.44;24.72;100006.91;5109939;28;20226;-53
2022/04/12 05:30:50;;;;;;;6.68;5.05;;;;;;;24.48;24.88;99999.56;5109447;28;20227;-51
2022/04/12 05:33:17;;;;;;;5.20;4.70;;;;;;;24.51;24.74;99996.63;5109766;28;20230;-51
2022/04/12 05:35:44;;;;;;;6.03;5.50;;;;;;;24.87;24.62;99999.03;5110048;28;20228;-52
2022/04/12 05:38:11;;;;;;;6.75;5.60;;;;;;;25.44;24.25;100002.41;5109662;28;20317;-51
2022/04/12 05:40:37;;;;;;;6.35;5.75;;;;;;;24.36;24.56;100003.16;5109977;28;20221;-51
2022/04/12 05:43:07;;;;;;;6.78;5.95;;;;;;;23.55;25.38;99996.09;5109764;28;20232;-51
2022/04/12 05:45:34;;;;;;;9.50;5.03;;;;;;;24.27;25.17;99994.09;5109566;28;20218;-51
2022/04/12 05:48:02;;;;;;;6.30;5.30;;;;;;;24.71;24.49;99987.13;5109906;28;20313;-51
2022/04/12 05:50:29;;;;;;;6.40;4.43;;;;;;;24.71;24.04;99987.13;5110002;28;20230;-51
2022/04/12 05:52:57;;;;;;;8.15;4.07;;;;;;;24.31;24.40;99994.72;5118419;27;20238;-54
2022/04/12 05:55:26;;;;;;;10.98;5.22;;;;;;;25.05;23.91;99987.94;5128558;28;20229;-52
2022/04/12 05:57:55;;;;;;;6.50;4.72;;;;;;;24.45;23.86;99989.16;5127116;27;20709;-52
2022/04/12 06:00:24;;;;;;;7.45;3.95;;;;;;;24.33;24.54;99985.66;5123986;27;20586;-52
2022/04/12 06:02:52;;;;;;;6.93;4.30;;;;;;;24.14;24.32;99993.34;5118226;27;20253;-52
2022/04/12 06:05:20;;;;;;;19.02;4.50;;;;;;;24.42;24.00;99992.06;5113877;28;20218;-53
2022/04/12 06:07:47;;;;;;;6.13;4.05;;;;;;;23.55;24.76;99995.25;5113845;28;20222;-52
2022/04/12 06:10:16;;;;;;;6.20;3.70;;;;;;;23.14;25.51;99993.78;5113773;28;20318;-52
2022/04/12 06:12:43;;;;;;;3.60;3.40;;;;;;;23.10;25.46;100003.78;5113682;28;20229;-55
2022/04/12 06:15:10;;;;;;;7.43;3.80;;;;;;;22.50;26.02;99984.31;5113079;28;20236;-54
2022/04/12 06:17:39;;;;;;;3.63;3.42;;;;;;;23.41;25.54;100006.81;5113684;28;20230;-54
2022/04/12 06:20:09;;;;;;;4.60;4.20;;;;;;;24.05;24.56;99989.56;5113638;28;20582;-53
2022/04/12 06:22:37;;;;;;;3.67;3.47;;;;;;;24.76;24.47;99998.19;5113840;28;20218;-54
2022/04/12 06:25:04;;;;;;;5.50;4.13;;;;;;;24.90;23.39;99995.28;5113495;28;20613;-54
2022/04/12 06:27:32;;;;;;;3.60;3.30;;;;;;;25.38;23.83;100002.94;5126311;27;20745;-53
2022/04/12 06:30:03;;;;;;;3.75;3.47;;;;;;;25.46;22.90;100000.47;5112423;28;20309;-53
2022/04/12 06:32:30;;;;;;;4.57;3.65;;;;;;;24.97;23.42;99999.16;5113346;28;20229;-52
2022/04/12 06:34:58;;;;;;;4.78;2.80;;;;;;;24.62;23.31;100001.94;5113128;28;20309;-51
2022/04/12 06:37:26;;;;;;;4.38;3.20;;;;;;;24.86;23.58;99996.50;5113430;28;20226;-52
2022/04/12 06:39:53;;;;;;;5.15;4.30;;;;;;;25.11;23.46;99996.22;5113045;28;20587;-52
2022/04/12 06:42:20;;;;;;;5.55;5.10;;;;;;;25.48;23.47;100004.69;5113385;28;20222;-50
2022/04/12 06:44:47;;;;;;;10.82;5.72;;;;;;;26.00;23.05;99998.53;5112226;28;20226;-53
2022/04/12 06:47:16;;;;;;;8.82;4.45;;;;;;;25.87;22.73;100000.53;5112717;28;20224;-53
2022/04/12 06:49:44;;;;;;;7.00;3.72;;;;;;;25.83;22.96;99996.47;5113322;28;20271;-53
2022/04/12 06:52:12;;;;;;;4.43;3.65;;;;;;;25.89;22.89;99987.09;5113303;28;20228;-53
2022/04/12 06:54:39;;;;;;;4.75;4.32;;;;;;;26.09;22.57;99998.69;5113324;28;20213;-53
2022/04/12 06:57:07;;;;;;;20.08;16.10;;;;;;;25.92;22.82;100003.66;5112949;28;20204;-52
2022/04/12 06:59:33;;;;;;;7.05;6.32;;;;;;;26.35;22.10;100008.84;5113171;28;20575;-53
2022/04/12 07:02:01;;;;;;;7.40;4.43;;;;;;;26.92;21.35;100014.50;5113160;28;20201;-52
2022/04/12 07:04:28;;;;;;;8.43;5.25;;;;;;;26.89;21.68;100018.28;5113263;28;20666;-53
2022/04/12 07:06:56;;;;;;;7.60;4.18;;;;;;;26.75;21.19;100023.97;5112779;28;20289;-52
2022/04/12 07:09:24;;;;;;;6.50;4.10;;;;;;;25.72;21.81;100028.44;5112545;28;20205;-52
2022/04/12 07:11:52;;;;;;;7.22;4.03;;;;;;;25.61;22.35;100009.88;5112730;28;20204;-52
2022/04/12 07:14:19;;;;;;;4.00;3.50;;;;;;;25.93;21.37;100026.63;5112677;28;20277;-52
2022/04/12 07:16:46;;;;;;;5.05;3.08;;;;;;;26.23;21.44;100019.66;5112852;28;20194;-52
2022/04/12 07:19:13;;;;;;;3.20;3.00;;;;;;;25.86;21.18;100020.13;5117553;27;20196;-52
2022/04/12 07:21:40;;;;;;;3.30;3.00;;;;;;;25.11;21.65;100028.13;5119976;27;20269;-52
2022/04/12 07:24:08;;;;;;;4.38;3.78;;;;;;;25.34;21.52;100023.59;5122601;27;20201;-52
2022/04/12 07:26:37;;;;;;;5.25;3.72;;;;;;;25.45;21.60;100028.00;5124207;27;20270;-52
2022/04/12 07:29:05;;;;;;;3.85;3.50;;;;;;;25.51;21.39;100024.84;5117795;27;20194;-52
2022/04/12 07:31:32;;;;;;;4.43;4.03;;;;;;;26.29;20.82;100025.34;5121213;27;20290;-52
2022/04/12 07:33:59;;;;;;;5.75;3.00;;;;;;;26.10;20.81;100024.34;5122411;27;20202;-52
2022/04/12 07:36:26;;;;;;;2.58;2.38;;;;;;;25.85;20.78;100026.41;5120606;27;20289;-51
2022/04/12 07:38:53;;;;;;;2.85;2.50;;;;;;;26.17;20.66;100020.19;5120802;27;20220;-51
2022/04/12 07:41:20;;;;;;;4.53;2.70;;;;;;;25.56;21.01;100018.19;5122085;27;20271;-52
2022/04/12 07:43:49;;;;;;;3.47;3.22;;;;;;;25.62;21.32;100016.88;5120686;27;20217;-51
2022/04/12 07:46:16;;;;;;;3.67;3.35;;;;;;;26.71;20.92;100023.44;5118009;27;20194;-51
2022/04/12 07:48:44;;;;;;;4.50;3.20;;;;;;;25.56;21.05;100020.84;5112271;28;20198;-53
2022/04/12 07:51:12;;;;;;;4.80;4.20;;;;;;;25.93;21.28;100021.31;5112266;28;20655;-53
2022/04/12 07:53:39;;;;;;;3.55;3.22;;;;;;;25.95;20.79;100014.03;5112178;28;20225;-53
2022/04/12 07:56:06;;;;;;;3.53;3.20;;;;;;;27.10;20.18;100015.56;5112193;28;20194;-53
2022/04/12 07:58:33;;;;;;;3.22;2.78;;;;;;;28.12;19.38;100012.34;5112240;28;20205;-53
2022/04/12 08:01:01;;;;;;;4.60;3.10;;;;;;;28.55;19.32;100016.34;5111940;28;20190;-53
2022/04/12 08:03:28;;;;;;;4.60;2.92;;;;;;;27.89;19.10;100016.31;5111925;28;20293;-53
2022/04/12 08:05:55;;;;;;;4.72;2.80;;;;;;;27.79;18.97;100007.50;5111820;28;20202;-51
2022/04/12 08:08:22;;;;;;;4.80;3.22;;;;;;;28.25;18.51;100004.06;5111856;28;20254;-53
2022/04/12 08:10:49;;;;;;;3.00;2.80;;;;;;;28.85;17.36;100005.38;5111814;28;20219;-52
2022/04/12 08:13:17;;;;;;;2.50;2.40;;;;;;;29.51;16.70;100001.59;5111781;28;20593;-53
2022/04/12 08:15:44;;;;;;;2.92;2.50;;;;;;;29.85;16.56;100001.69;5116793;27;20204;-52
2022/04/12 08:18:13;;;;;;;4.85;2.50;;;;;;;30.56;16.14;100001.53;5120678;27;20276;-52
2022/04/12 08:20:40;;;;;;;4.38;2.72;;;;;;;31.10;16.56;99996.72;5120812;27;20251;-51
2022/04/12 08:23:07;;;;;;;3.30;3.00;;;;;;;30.80;16.40;99988.25;5116887;27;20230;-52
2022/04/12 08:25:34;;;;;;;2.85;2.65;;;;;;;30.63;16.34;99994.53;5120139;27;20194;-52
2022/04/12 08:28:01;;;;;;;5.22;3.10;;;;;;;31.38;16.31;99995.41;5121296;27;20208;-52
2022/04/12 08:30:28;;;;;;;3.85;2.97;;;;;;;31.83;16.14;99986.09;5119661;27;20585;-52
2022/04/12 08:32:55;;;;;;;4.38;3.30;;;;;;;31.48;15.96;99990.75;5117380;27;20663;-53
2022/04/12 08:35:23;;;;;;;3.20;3.00;;;;;;;30.98;16.20;99993.47;5111234;28;20201;-53
2022/04/12 08:37:50;;;;;;;3.25;3.00;;;;;;;29.91;17.23;99977.00;5111443;28;20226;-53
2022/04/12 08:40:18;;;;;;;5.10;3.67;;;;;;;28.66;18.41;99984.09;5113107;27;20190;-53
2022/04/12 08:42:46;;;;;;;6.90;5.18;;;;;;;28.71;18.32;99981.81;5119097;27;20197;-52
2022/04/12 08:45:13;;;;;;;3.25;3.05;;;;;;;28.79;18.00;99973.91;5120312;27;20289;-52
2022/04/12 08:47:41;;;;;;;3.53;3.30;;;;;;;27.58;18.88;99975.66;5127135;27;20208;-52
2022/04/12 08:50:10;;;;;;;3.17;2.88;;;;;;;27.85;19.02;99972.25;5131301;27;20201;-52
2022/04/12 08:52:39;;;;;;;3.67;3.38;;;;;;;28.96;18.14;99971.44;5132047;27;20204;-53
2022/04/12 08:55:08;;;;;;;7.00;2.78;;;;;;;29.77;17.69;99980.25;5131878;27;20197;-52
2022/04/12 08:57:35;;;;;;;3.85;3.55;;;;;;;29.50;17.49;99963.28;5132070;27;20629;-53
2022/04/12 09:00:03;;;;;;;3.30;3.10;;;;;;;28.19;18.41;99953.94;5119152;27;20204;-52
2022/04/12 09:02:30;;;;;;;4.07;3.40;;;;;;;27.80;18.63;99953.16;5120638;27;20190;-52
2022/04/12 09:04:56;;;;;;;3.90;3.10;;;;;;;27.68;18.90;99955.13;5120696;27;20198;-53
2022/04/12 09:07:26;;;;;;;3.50;3.30;;;;;;;28.79;18.69;99949.84;5121075;27;20686;-53
2022/04/12 09:10:05;;;;;;;3.85;3.55;;;;;;;29.10;18.76;99949.53;5116721;27;20202;-52
2022/04/12 09:12:34;;;;;;;4.15;3.80;;;;;;;28.88;18.65;99938.28;5122337;27;20280;-52
2022/04/12 09:15:02;;;;;;;3.70;3.40;;;;;;;28.44;18.63;99947.09;5130933;27;20592;-52
2022/04/12 09:17:32;;;;;;;3.60;3.30;;;;;;;29.75;17.93;99942.09;5131434;27;20284;-53
2022/04/12 09:19:59;;;;;;;4.03;3.72;;;;;;;30.68;17.38;99949.34;5131251;27;20734;-52
2022/04/12 09:22:27;;;;;;;3.70;3.33;;;;;;;30.30;17.88;99948.81;5131272;27;20262;-52
2022/04/12 09:24:58;;;;;;;3.10;2.90;;;;;;;31.36;16.69;99951.84;5131132;27;20666;-53
2022/04/12 09:27:27;;;;;;;3.72;3.30;;;;;;;30.48;17.21;99934.47;5130835;27;20640;-52
2022/04/12 09:29:55;;;;;;;3.53;3.03;;;;;;;30.16;17.43;99951.22;5127467;27;20183;-53
2022/04/12 09:32:24;;;;;;;4.13;2.88;;;;;;;29.86;17.41;99931.97;5118534;27;20213;-52
2022/04/12 09:34:52;;;;;;;3.42;3.22;;;;;;;30.41;17.22;99939.66;5123500;27;20198;-52
2022/04/12 09:37:25;;;;;;;3.70;3.50;;;;;;;30.71;17.34;99932.06;5118923;27;20198;-52
2022/04/12 09:40:05;;;;;;;5.22;3.50;;;;;;;29.39;17.95;99923.41;5124930;28;20220;-52
2022/04/12 09:42:49;;;;;;;2.92;2.80;;;;;;;27.88;18.94;99921.25;5130895;28;20190;-52
2022/04/12 09:45:17;;;;;;;3.60;3.40;;;;;;;28.76;18.80;99928.78;5130870;28;20189;-52
2022/04/12 09:47:45;;;;;;;4.15;3.45;;;;;;;28.83;18.37;99910.31;5131286;28;20197;-53
2022/04/12 09:50:13;;;;;;;3.90;3.65;;;;;;;28.99;18.70;99896.31;5131014;28;20277;-54
2022/04/12 09:52:40;;;;;;;3.47;3.13;;;;;;;29.45;18.03;99896.06;5131337;28;20316;-53
2022/04/12 09:55:10;;;;;;;3.67;3.45;;;;;;;28.72;18.92;99903.34;5130641;28;20276;-53
2022/04/12 09:57:40;;;;;;;4.80;3.67;;;;;;;28.59;18.94;99899.34;5130552;28;20190;-53
2022/04/12 10:00:09;;;;;;;3.80;3.50;;;;;;;27.56;18.93;99886.94;5130601;28;20197;-53
2022/04/12 10:02:36;;;;;;;3.88;3.53;;;;;;;25.19;21.03;99874.22;5124166;28;20192;-54
2022/04/12 10:05:05;;;;;;;6.13;4.18;;;;;;;23.63;22.97;99892.97;5130895;28;20198;-52
2022/04/12 10:07:34;;;;;;;3.50;3.20;;;;;;;22.14;24.57;99889.88;5130617;28;20205;-52
2022/04/12 10:10:04;;;;;;;4.68;4.20;;;;;;;20.35;25.88;99874.56;5124128;28;20191;-53
2022/04/12 10:12:32;;;;;;;3.08;2.75;;;;;;;19.39;26.88;99877.81;5130403;28;20259;-53
2022/04/12 10:14:59;;;;;;;2.97;2.78;;;;;;;18.78;28.04;99870.81;5130348;28;20208;-52
2022/04/12 10:17:26;;;;;;;3.63;2.75;;;;;;;18.42;28.65;99868.44;5130465;28;20278;-54
2022/04/12 10:19:54;;;;;;;3.08;2.80;;;;;;;18.09;28.74;99862.41;5130370;28;20300;-53
2022/04/12 10:22:21;;;;;;;4.95;2.83;;;;;;;17.81;29.65;99844.66;5128794;28;20347;-53
2022/04/12 10:24:49;;;;;;;2.92;2.72;;;;;;;17.45;29.88;99849.19;5115890;28;20194;-52
2022/04/12 10:27:17;;;;;;;2.70;2.50;;;;;;;17.13;30.36;99833.31;5127284;28;20228;-53
2022/04/12 10:30:25;;;;;;;2.67;2.47;;;;;;;17.20;30.49;99836.47;5118310;28;20194;-53
2022/04/12 10:33:03;;;;;;;2.70;2.50;;;;;;;17.15;29.93;99826.22;5117595;28;20214;-53
2022/04/12 10:35:51;;;;;;;2.70;2.47;;;;;;;17.19;30.58;99827.75;5118482;28;20199;-52
2022/04/12 10:38:19;;;;;;;2.43;2.23;;;;;;;17.05;31.10;99794.34;5118990;28;20676;-53
2022/04/12 10:40:48;;;;;;;3.60;2.77;;;;;;;17.24;31.37;99807.38;5124271;28;20194;-53
2022/04/12 10:43:21;;;;;;;3.03;2.80;;;;;;;17.00;32.32;99813.88;5130750;27;20216;-53
2022/04/12 10:45:51;;;;;;;2.70;2.40;;;;;;;16.70;32.05;99801.34;5133631;27;20208;-52
2022/04/12 10:48:20;;;;;;;3.10;2.80;;;;;;;16.70;31.94;99798.72;5134624;27;20674;-53
2022/04/12 10:50:48;;;;;;;3.10;2.90;;;;;;;16.66;32.07;99798.97;5133784;27;20194;-53
2022/04/12 10:53:14;;;;;;;5.23;2.20;;;;;;;16.73;30.91;99795.09;5125087;27;20202;-54
2022/04/12 10:55:43;;;;;;;2.37;2.23;;;;;;;16.87;30.88;99791.81;5116296;27;20197;-52
2022/04/12 10:58:14;;;;;;;2.80;2.50;;;;;;;16.92;31.40;99788.03;5113367;28;20195;-51
2022/04/12 11:00:43;;;;;;;2.30;2.20;;;;;;;16.94;31.18;99787.94;5113399;28;20652;-53
2022/04/12 11:03:12;;;;;;;2.83;2.40;;;;;;;16.99;30.43;99775.44;5113061;28;20598;-53
2022/04/12 11:05:55;;;;;;;2.63;2.43;;;;;;;17.11;30.42;99777.44;5113214;28;20195;-52
2022/04/12 11:08:51;;;;;;;3.10;2.30;;;;;;;17.06;31.03;99763.72;5113279;28;20251;-50
2022/04/12 11:11:28;;;;;;;3.07;2.37;;;;;;;16.98;31.23;99758.03;5112903;28;20222;-51
2022/04/12 11:13:56;;;;;;;2.63;2.30;;;;;;;16.88;30.93;99765.50;5112654;28;20558;-51
2022/04/12 11:16:28;;;;;;;2.77;2.57;;;;;;;16.95;31.10;99758.16;5117064;27;20198;-50
2022/04/12 11:18:57;;;;;;;3.27;2.47;;;;;;;17.01;31.39;99753.47;5113047;27;20210;-52
2022/04/12 11:21:26;;;;;;;3.07;2.80;;;;;;;17.00;31.10;99733.44;5112902;28;20193;-52
2022/04/12 11:24:02;;;;;;;2.50;2.30;;;;;;;17.17;29.55;99753.50;5112422;28;20281;-52
2022/04/12 11:26:37;;;;;;;2.60;2.40;;;;;;;17.20;30.06;99753.38;5112658;28;20230;-51
2022/04/12 11:29:09;;;;;;;3.17;2.70;;;;;;;17.19;30.00;99746.41;5112876;28;20688;-53
2022/04/12 11:31:40;;;;;;;2.60;2.40;;;;;;;17.18;29.04;99736.84;5112570;28;20339;-52
2022/04/12 11:34:09;;;;;;;4.17;2.47;;;;;;;17.08;29.92;99735.63;5112437;28;20194;-52
2022/04/12 11:36:37;;;;;;;2.83;2.33;;;;;;;17.16;30.09;99716.88;5112184;28;20584;-52
2022/04/12 11:39:04;;;;;;;2.30;2.20;;;;;;;17.14;30.47;99722.22;5112648;28;20198;-52
2022/04/12 11:41:32;;;;;;;2.87;2.57;;;;;;;17.12;30.23;99721.44;5112764;28;20583;-52